createdAt,value
2017-04-10T00:00:14.905Z,0
2017-04-10T00:01:24.511Z,0
2017-04-10T00:02:33.805Z,0
2017-04-10T00:03:43.804Z,0
2017-04-10T00:04:54.324Z,0
2017-04-10T00:06:04.551Z,0
2017-04-10T00:07:14.459Z,0
2017-04-10T00:08:24.365Z,0
2017-04-10T00:09:34.276Z,0
2017-04-10T00:10:44.029Z,0
2017-04-10T00:11:53.658Z,0
2017-04-10T00:13:03.879Z,0
2017-04-10T00:14:13.495Z,0
2017-04-10T00:15:23.098Z,0
2017-04-10T00:16:33.170Z,0
2017-04-10T00:17:42.495Z,0
2017-04-10T00:18:52.396Z,0
2017-04-10T00:20:02.602Z,0
2017-04-10T00:21:12.825Z,0
2017-04-10T00:22:22.629Z,0
2017-04-10T00:23:32.553Z,0
2017-04-10T00:24:42.471Z,0
2017-04-10T00:25:52.075Z,0
2017-04-10T00:27:02.033Z,0
2017-04-10T00:28:11.792Z,0
2017-04-10T00:29:21.714Z,0
2017-04-10T00:30:31.074Z,0
2017-04-10T00:31:40.996Z,0
2017-04-10T00:32:51.290Z,0
2017-04-10T00:34:01.370Z,0
2017-04-10T00:35:11.091Z,0
2017-04-10T00:36:20.993Z,0
2017-04-10T00:37:30.617Z,0
2017-04-10T00:38:40.222Z,0
2017-04-10T00:39:50.333Z,0
2017-04-10T00:41:00.251Z,0
2017-04-10T00:42:09.863Z,0
2017-04-10T00:43:19.482Z,0
2017-04-10T00:44:29.088Z,0
2017-04-10T00:45:39.491Z,0
2017-04-10T00:46:49.409Z,0
2017-04-10T00:47:58.723Z,0
2017-04-10T00:49:08.639Z,0
2017-04-10T00:50:17.959Z,0
2017-04-10T00:51:28.333Z,0
2017-04-10T00:52:38.262Z,0
2017-04-10T00:53:48.184Z,0
2017-04-10T00:54:58.088Z,0
2017-04-10T00:56:07.710Z,0
2017-04-10T00:57:17.868Z,0
2017-04-10T00:58:27.476Z,0
2017-04-10T00:59:37.397Z,0
2017-04-10T01:00:47.006Z,0
2017-04-10T01:01:57.234Z,0
2017-04-10T01:03:07.599Z,0
2017-04-10T01:04:17.826Z,0
2017-04-10T01:05:27.461Z,0
2017-04-10T01:06:37.375Z,0
2017-04-10T01:07:47.298Z,0
2017-04-10T01:08:57.378Z,0
2017-04-10T01:10:07.614Z,0
2017-04-10T01:11:17.883Z,0
2017-04-10T01:12:27.812Z,0
2017-04-10T01:13:37.742Z,0
2017-04-10T01:14:48.211Z,0
2017-04-10T01:15:58.438Z,0
2017-04-10T01:17:08.675Z,0
2017-04-10T01:18:18.620Z,0
2017-04-10T01:19:28.836Z,0
2017-04-10T01:20:39.323Z,0
2017-04-10T01:21:48.935Z,0
2017-04-10T01:22:59.162Z,0
2017-04-10T01:24:09.387Z,0
2017-04-10T01:25:19.608Z,0
2017-04-10T01:26:29.674Z,0
2017-04-10T01:27:39.591Z,0
2017-04-10T01:28:49.806Z,0
2017-04-10T01:29:59.707Z,0
2017-04-10T01:31:09.617Z,0
2017-04-10T01:32:19.685Z,0
2017-04-10T01:33:29.904Z,0
2017-04-10T01:34:40.149Z,0
2017-04-10T01:35:49.741Z,0
2017-04-10T01:36:59.389Z,0
2017-04-10T01:38:09.893Z,0
2017-04-10T01:39:19.804Z,0
2017-04-10T01:40:30.011Z,0
2017-04-10T01:41:39.611Z,0
2017-04-10T01:42:49.512Z,0
2017-04-10T01:43:59.272Z,0
2017-04-10T01:45:09.505Z,0
2017-04-10T01:46:19.716Z,0
2017-04-10T01:47:29.615Z,0
2017-04-10T01:48:39.812Z,0
2017-04-10T01:49:49.898Z,0
2017-04-10T01:50:59.511Z,0
2017-04-10T01:52:09.792Z,0
2017-04-10T01:53:19.400Z,0
2017-04-10T01:54:28.986Z,0
2017-04-10T01:55:39.447Z,0
2017-04-10T01:56:49.669Z,0
2017-04-10T01:57:59.878Z,0
2017-04-10T01:59:09.781Z,0
2017-04-10T02:00:19.685Z,0
2017-04-10T02:01:30.051Z,0
2017-04-10T02:02:40.263Z,0
2017-04-10T02:03:49.554Z,0
2017-04-10T02:04:58.855Z,0
2017-04-10T02:06:08.755Z,0
2017-04-10T02:07:18.812Z,0
2017-04-10T02:08:28.398Z,0
2017-04-10T02:09:38.608Z,0
2017-04-10T02:10:48.510Z,0
2017-04-10T02:11:58.424Z,0
2017-04-10T02:13:08.481Z,0
2017-04-10T02:14:18.398Z,0
2017-04-10T02:15:27.408Z,0
2017-04-10T02:16:37.010Z,0
2017-04-10T02:17:46.665Z,0
2017-04-10T02:18:56.435Z,0
2017-04-10T02:20:06.033Z,0
2017-04-10T02:21:15.953Z,0
2017-04-10T02:22:25.873Z,0
2017-04-10T02:23:35.811Z,0
2017-04-10T02:24:46.342Z,0
2017-04-10T02:25:56.304Z,0
2017-04-10T02:27:05.915Z,0
2017-04-10T02:28:16.144Z,0
2017-04-10T02:29:25.752Z,0
2017-04-10T02:30:35.976Z,0
2017-04-10T02:31:46.193Z,0
2017-04-10T02:32:56.421Z,0
2017-04-10T02:34:06.034Z,0
2017-04-10T02:35:16.254Z,0
2017-04-10T02:36:26.127Z,0
2017-04-10T02:37:36.350Z,0
2017-04-10T02:38:46.575Z,0
2017-04-10T02:39:56.481Z,0
2017-04-10T02:41:06.110Z,0
2017-04-10T02:42:16.474Z,0
2017-04-10T02:43:27.084Z,0
2017-04-10T02:44:36.742Z,0
2017-04-10T02:45:46.095Z,0
2017-04-10T02:46:55.700Z,0
2017-04-10T02:48:05.912Z,0
2017-04-10T02:49:16.140Z,0
2017-04-10T02:50:25.750Z,0
2017-04-10T02:51:35.671Z,0
2017-04-10T02:52:45.897Z,0
2017-04-10T02:53:56.364Z,0
2017-04-10T02:55:06.283Z,0
2017-04-10T02:56:16.188Z,0
2017-04-10T02:57:26.113Z,0
2017-04-10T02:58:36.324Z,0
2017-04-10T02:59:46.807Z,0
2017-04-10T03:00:56.414Z,0
2017-04-10T03:02:06.024Z,0
2017-04-10T03:03:15.631Z,0
2017-04-10T03:04:25.863Z,0
2017-04-10T03:05:35.843Z,0
2017-04-10T03:06:45.761Z,0
2017-04-10T03:07:55.695Z,0
2017-04-10T03:09:05.927Z,0
2017-04-10T03:10:15.835Z,0
2017-04-10T03:11:25.546Z,0
2017-04-10T03:12:35.763Z,0
2017-04-10T03:13:45.365Z,0
2017-04-10T03:14:55.275Z,0
2017-04-10T03:16:05.500Z,0
2017-04-10T03:17:15.761Z,0
2017-04-10T03:18:25.052Z,0
2017-04-10T03:19:34.670Z,0
2017-04-10T03:20:44.277Z,0
2017-04-10T03:21:53.889Z,0
2017-04-10T03:23:03.650Z,0
2017-04-10T03:24:13.260Z,0
2017-04-10T03:25:23.486Z,0
2017-04-10T03:26:33.098Z,0
2017-04-10T03:27:42.468Z,0
2017-04-10T03:28:52.636Z,0
2017-04-10T03:30:02.550Z,0
2017-04-10T03:31:12.162Z,0
2017-04-10T03:32:21.782Z,0
2017-04-10T03:33:31.694Z,0
2017-04-10T03:34:41.725Z,0
2017-04-10T03:35:52.025Z,0
2017-04-10T03:37:01.962Z,0
2017-04-10T03:38:11.879Z,0
2017-04-10T03:39:22.102Z,0
2017-04-10T03:40:32.312Z,0
2017-04-10T03:41:42.234Z,0
2017-04-10T03:42:52.150Z,0
2017-04-10T03:44:02.069Z,0
2017-04-10T03:45:12.302Z,0
2017-04-10T03:46:22.780Z,0
2017-04-10T03:47:33.001Z,0
2017-04-10T03:48:42.909Z,0
2017-04-10T03:49:53.138Z,0
2017-04-10T03:51:03.364Z,0
2017-04-10T03:52:13.836Z,0
2017-04-10T03:53:23.453Z,0
2017-04-10T03:54:33.368Z,0
2017-04-10T03:55:42.361Z,0
2017-04-10T03:56:52.582Z,0
2017-04-10T03:58:03.060Z,0
2017-04-10T03:59:12.977Z,0
2017-04-10T04:00:22.903Z,0
2017-04-10T04:01:33.127Z,0
2017-04-10T04:02:42.737Z,0
2017-04-10T04:03:52.915Z,0
2017-04-10T04:05:03.195Z,0
2017-04-10T04:06:12.807Z,0
2017-04-10T04:07:22.724Z,0
2017-04-10T04:08:32.633Z,0
2017-04-10T04:09:43.015Z,0
2017-04-10T04:10:52.616Z,0
2017-04-10T04:12:02.529Z,0
2017-04-10T04:13:12.134Z,0
2017-04-10T04:14:22.082Z,0
2017-04-10T04:15:31.940Z,0
2017-04-10T04:16:42.083Z,0
2017-04-10T04:17:51.997Z,0
2017-04-10T04:19:01.909Z,0
2017-04-10T04:20:11.526Z,0
2017-04-10T04:21:21.450Z,0
2017-04-10T04:22:31.373Z,0
2017-04-10T04:23:41.285Z,0
2017-04-10T04:24:50.895Z,0
2017-04-10T04:26:00.836Z,0
2017-04-10T04:27:11.000Z,0
2017-04-10T04:28:21.221Z,0
2017-04-10T04:29:31.455Z,0
2017-04-10T04:30:41.375Z,0
2017-04-10T04:31:51.347Z,0
2017-04-10T04:33:01.519Z,0
2017-04-10T04:34:11.436Z,0
2017-04-10T04:35:21.666Z,0
2017-04-10T04:36:31.891Z,0
2017-04-10T04:37:41.818Z,0
2017-04-10T04:38:52.387Z,0
2017-04-10T04:40:02.308Z,0
2017-04-10T04:41:12.537Z,0
2017-04-10T04:42:22.759Z,0
2017-04-10T04:43:32.993Z,0
2017-04-10T04:44:43.460Z,0
2017-04-10T04:45:53.678Z,0
2017-04-10T04:47:03.593Z,0
2017-04-10T04:48:13.830Z,0
2017-04-10T04:49:23.136Z,0
2017-04-10T04:50:33.398Z,0
2017-04-10T04:51:43.007Z,0
2017-04-10T04:52:52.685Z,0
2017-04-10T04:54:01.987Z,0
2017-04-10T04:55:11.910Z,0
2017-04-10T04:56:22.467Z,0
2017-04-10T04:57:32.431Z,0
2017-04-10T04:58:42.076Z,5
2017-04-10T04:59:52.833Z,5
2017-04-10T05:01:02.755Z,5
2017-04-10T05:02:12.512Z,5
2017-04-10T05:03:22.438Z,5
2017-04-10T05:04:32.688Z,5
2017-04-10T05:05:42.635Z,5
2017-04-10T05:06:52.883Z,5
2017-04-10T05:08:03.270Z,10
2017-04-10T05:09:13.534Z,10
2017-04-10T05:10:23.194Z,10
2017-04-10T05:11:33.422Z,10
2017-04-10T05:12:43.127Z,10
2017-04-10T05:13:53.443Z,10
2017-04-10T05:15:03.695Z,10
2017-04-10T05:16:13.322Z,15
2017-04-10T05:17:23.059Z,15
2017-04-10T05:18:32.060Z,15
2017-04-10T05:19:41.963Z,15
2017-04-10T05:20:52.120Z,15
2017-04-10T05:22:02.358Z,15
2017-04-10T05:23:12.597Z,15
2017-04-10T05:24:22.528Z,20
2017-04-10T05:25:33.303Z,20
2017-04-10T05:26:43.585Z,20
2017-04-10T05:27:53.516Z,20
2017-04-10T05:29:03.137Z,20
2017-04-10T05:30:12.784Z,25
2017-04-10T05:31:22.894Z,25
2017-04-10T05:32:33.146Z,25
2017-04-10T05:33:42.461Z,25
2017-04-10T05:34:52.423Z,25
2017-04-10T05:36:02.415Z,25
2017-04-10T05:37:12.460Z,30
2017-04-10T05:38:22.473Z,30
2017-04-10T05:39:32.728Z,30
2017-04-10T05:40:42.978Z,35
2017-04-10T05:41:52.625Z,55
2017-04-10T05:43:03.636Z,65
2017-04-10T05:44:13.615Z,70
2017-04-10T05:45:23.574Z,75
2017-04-10T05:46:33.801Z,60
2017-04-10T05:47:45.025Z,55
2017-04-10T05:48:55.275Z,45
2017-04-10T05:50:05.497Z,40
2017-04-10T05:51:15.436Z,50
2017-04-10T05:52:25.702Z,45
2017-04-10T05:53:35.743Z,50
2017-04-10T05:54:46.033Z,45
2017-04-10T06:02:15.909Z,40
2017-04-10T06:03:25.862Z,45
2017-04-10T06:04:36.121Z,45
2017-04-10T06:05:45.805Z,45
2017-04-10T06:06:55.131Z,50
2017-04-10T06:08:05.623Z,55
2017-04-10T06:09:15.857Z,55
2017-04-10T06:10:25.493Z,55
2017-04-10T06:11:35.429Z,50
2017-04-10T06:12:45.355Z,45
2017-04-10T06:13:55.550Z,40
2017-04-10T06:15:04.953Z,35
2017-04-10T06:16:14.567Z,35
2017-04-10T06:17:24.500Z,35
2017-04-10T06:18:34.480Z,40
2017-04-10T06:19:45.045Z,40
2017-04-10T06:20:54.972Z,40
2017-04-10T06:22:04.590Z,45
2017-04-10T06:23:14.225Z,45
2017-04-10T06:24:24.564Z,50
2017-04-10T06:25:34.595Z,60
2017-04-10T06:26:44.232Z,65
2017-04-10T06:27:54.170Z,65
2017-04-10T06:29:03.797Z,65
2017-04-10T06:30:13.734Z,65
2017-04-10T06:31:23.615Z,65
2017-04-10T06:32:33.553Z,65
2017-04-10T06:33:43.794Z,75
2017-04-10T06:34:54.024Z,85
2017-04-10T06:36:04.255Z,90
2017-04-10T06:37:14.747Z,100
2017-04-10T06:38:24.986Z,100
2017-04-10T06:39:35.223Z,95
2017-04-10T06:40:44.845Z,80
2017-04-10T06:41:55.077Z,80
2017-04-10T06:43:05.000Z,85
2017-04-10T06:44:14.938Z,95
2017-04-10T06:45:25.191Z,110
2017-04-10T06:46:35.121Z,115
2017-04-10T06:47:45.354Z,115
2017-04-10T06:48:55.831Z,105
2017-04-10T06:50:06.178Z,110
2017-04-10T06:51:16.167Z,105
2017-04-10T06:52:26.091Z,95
2017-04-10T06:53:35.709Z,90
2017-04-10T06:54:45.169Z,80
2017-04-10T06:55:55.106Z,75
2017-04-10T06:57:05.023Z,75
2017-04-10T06:58:14.945Z,85
2017-04-10T06:59:24.856Z,90
2017-04-10T07:00:34.434Z,95
2017-04-10T07:01:44.354Z,85
2017-04-10T07:02:54.312Z,70
2017-04-10T07:04:04.247Z,65
2017-04-10T07:05:14.496Z,65
2017-04-10T07:06:24.440Z,60
2017-04-10T07:07:34.675Z,60
2017-04-10T07:08:44.593Z,55
2017-04-10T07:09:54.547Z,55
2017-04-10T07:11:04.466Z,50
2017-04-10T07:12:14.034Z,40
2017-04-10T07:13:23.045Z,40
2017-04-10T07:14:32.362Z,40
2017-04-10T07:15:42.008Z,40
2017-04-10T07:16:51.930Z,40
2017-04-10T07:18:02.262Z,35
2017-04-10T07:19:12.198Z,35
2017-04-10T07:20:22.429Z,30
2017-04-10T07:21:32.355Z,30
2017-04-10T07:22:42.042Z,35
2017-04-10T07:23:52.536Z,35
2017-04-10T07:25:02.474Z,35
2017-04-10T07:26:12.719Z,35
2017-04-10T07:27:22.338Z,35
2017-04-10T07:28:31.637Z,35
2017-04-10T07:29:42.127Z,35
2017-04-10T07:30:52.054Z,35
2017-04-10T07:32:01.986Z,35
2017-04-10T07:33:11.649Z,35
2017-04-10T07:34:21.579Z,35
2017-04-10T07:35:31.682Z,30
2017-04-10T07:36:41.909Z,30
2017-04-10T07:37:51.519Z,30
2017-04-10T07:39:01.755Z,25
2017-04-10T07:40:11.703Z,25
2017-04-10T07:41:21.903Z,25
2017-04-10T07:42:30.911Z,20
2017-04-10T07:43:41.141Z,20
2017-04-10T07:44:51.383Z,25
2017-04-10T07:46:01.328Z,30
2017-04-10T07:47:11.509Z,30
2017-04-10T07:48:21.127Z,35
2017-04-10T07:49:31.044Z,35
2017-04-10T07:50:40.979Z,35
2017-04-10T07:51:50.911Z,30
2017-04-10T07:53:00.781Z,25
2017-04-10T07:54:10.728Z,30
2017-04-10T07:55:20.963Z,35
2017-04-10T07:56:31.195Z,40
2017-04-10T07:57:40.843Z,40
2017-04-10T07:58:51.490Z,30
2017-04-10T08:00:01.745Z,25
2017-04-10T08:01:11.683Z,30
2017-04-10T08:02:21.613Z,35
2017-04-10T08:03:31.547Z,35
2017-04-10T08:04:41.634Z,30
2017-04-10T08:05:50.957Z,30
2017-04-10T08:07:00.649Z,25
2017-04-10T08:08:10.590Z,30
2017-04-10T08:09:20.525Z,40
2017-04-10T08:10:31.364Z,40
2017-04-10T08:11:41.961Z,40
2017-04-10T08:12:52.033Z,40
2017-04-10T08:14:02.293Z,45
2017-04-10T08:15:12.597Z,60
2017-04-10T08:16:22.830Z,70
2017-04-10T08:17:32.454Z,65
2017-04-10T08:18:42.553Z,75
2017-04-10T08:19:52.484Z,60
2017-04-10T08:21:02.127Z,55
2017-04-10T08:22:12.351Z,70
2017-04-10T08:23:21.976Z,90
2017-04-10T08:24:31.919Z,90
2017-04-10T08:25:42.148Z,90
2017-04-10T08:26:51.763Z,85
2017-04-10T08:28:01.539Z,70
2017-04-10T08:29:10.853Z,65
2017-04-10T08:30:21.081Z,60
2017-04-10T08:31:30.403Z,50
2017-04-10T08:32:40.318Z,55
2017-04-10T08:33:49.788Z,75
2017-04-10T08:34:59.707Z,80
2017-04-10T08:36:09.655Z,65
2017-04-10T08:37:19.586Z,40
2017-04-10T08:38:29.503Z,35
2017-04-10T08:39:39.598Z,35
2017-04-10T08:40:48.934Z,35
2017-04-10T08:41:58.859Z,35
2017-04-10T08:43:08.176Z,35
2017-04-10T08:44:18.403Z,50
2017-04-10T08:45:28.577Z,70
2017-04-10T08:46:38.796Z,80
2017-04-10T08:47:48.713Z,60
2017-04-10T08:48:59.004Z,65
2017-04-10T08:50:09.270Z,70
2017-04-10T08:51:19.824Z,75
2017-04-10T08:52:29.744Z,80
2017-04-10T08:53:39.382Z,85
2017-04-10T08:54:49.015Z,85
2017-04-10T08:55:58.960Z,65
2017-04-10T08:57:10.549Z,55
2017-04-10T08:58:20.474Z,75
2017-04-10T08:59:30.408Z,110
2017-04-10T09:00:40.051Z,115
2017-04-10T09:01:49.364Z,110
2017-04-10T09:02:59.748Z,95
2017-04-10T09:04:09.380Z,100
2017-04-10T09:05:19.020Z,100
2017-04-10T09:06:28.631Z,95
2017-04-10T09:07:38.586Z,95
2017-04-10T09:08:48.811Z,90
2017-04-10T09:09:58.448Z,100
2017-04-10T09:11:08.377Z,110
2017-04-10T09:12:18.304Z,120
2017-04-10T09:13:28.537Z,100
2017-04-10T09:14:38.405Z,105
2017-04-10T09:15:48.652Z,95
2017-04-10T09:16:58.894Z,90
2017-04-10T09:18:08.814Z,90
2017-04-10T09:19:19.046Z,90
2017-04-10T09:20:28.920Z,75
2017-04-10T09:21:38.233Z,60
2017-04-10T09:22:47.853Z,75
2017-04-10T09:23:57.478Z,70
2017-04-10T09:25:07.708Z,45
2017-04-10T09:26:17.890Z,50
2017-04-10T09:27:26.897Z,65
2017-04-10T09:28:37.147Z,60
2017-04-10T09:29:47.082Z,65
2017-04-10T09:30:56.724Z,95
2017-04-10T09:32:06.805Z,95
2017-04-10T09:33:16.437Z,80
2017-04-10T09:34:26.050Z,70
2017-04-10T09:35:35.989Z,75
2017-04-10T09:36:45.615Z,75
2017-04-10T09:37:56.096Z,75
2017-04-10T09:39:06.037Z,80
2017-04-10T09:40:15.674Z,90
2017-04-10T09:41:25.610Z,90
2017-04-10T09:42:35.237Z,105
2017-04-10T09:43:45.571Z,80
2017-04-10T09:44:55.525Z,65
2017-04-10T09:46:05.466Z,75
2017-04-10T09:47:15.385Z,75
2017-04-10T09:48:25.310Z,65
2017-04-10T09:49:34.963Z,60
2017-04-10T09:50:44.576Z,65
2017-04-10T09:51:54.206Z,75
2017-04-10T09:53:03.822Z,80
2017-04-10T09:54:13.738Z,55
2017-04-10T09:55:24.272Z,80
2017-04-10T09:56:33.589Z,90
2017-04-10T09:57:43.520Z,75
2017-04-10T09:58:53.144Z,65
2017-04-10T10:00:03.078Z,65
2017-04-10T10:01:13.119Z,60
2017-04-10T10:02:22.419Z,55
2017-04-10T10:03:32.661Z,50
2017-04-10T10:04:42.326Z,45
2017-04-10T10:05:51.967Z,50
2017-04-10T10:07:01.575Z,55
2017-04-10T10:08:10.584Z,65
2017-04-10T10:09:19.897Z,70
2017-04-10T10:10:29.818Z,75
2017-04-10T10:11:39.446Z,80
2017-04-10T10:12:49.778Z,70
2017-04-10T10:13:59.417Z,75
2017-04-10T10:15:09.682Z,80
2017-04-10T10:16:19.957Z,75
2017-04-10T10:17:29.622Z,75
2017-04-10T10:18:40.154Z,85
2017-04-10T10:19:49.814Z,100
2017-04-10T10:20:59.768Z,80
2017-04-10T10:22:08.823Z,70
2017-04-10T10:23:18.774Z,90
2017-04-10T10:24:29.050Z,95
2017-04-10T10:25:39.301Z,95
2017-04-10T10:26:49.554Z,90
2017-04-10T10:27:59.480Z,65
2017-04-10T10:29:09.421Z,65
2017-04-10T10:30:19.973Z,60
2017-04-10T10:31:29.893Z,40
2017-04-10T10:32:39.823Z,35
2017-04-10T10:33:49.462Z,35
2017-04-10T10:34:59.386Z,35
2017-04-10T10:36:09.774Z,30
2017-04-10T10:37:19.707Z,35
2017-04-10T10:38:29.317Z,45
2017-04-10T10:39:38.942Z,50
2017-04-10T10:40:48.877Z,50
2017-04-10T10:41:58.797Z,55
2017-04-10T10:43:08.114Z,65
2017-04-10T10:44:17.427Z,70
2017-04-10T10:45:27.355Z,75
2017-04-10T10:46:37.286Z,70
2017-04-10T10:47:47.480Z,65
2017-04-10T10:48:57.507Z,50
2017-04-10T10:50:07.125Z,40
2017-04-10T10:51:16.750Z,40
2017-04-10T10:52:26.682Z,45
2017-04-10T10:53:37.027Z,40
2017-04-10T10:54:46.964Z,35
2017-04-10T10:55:56.892Z,30
2017-04-10T10:57:06.823Z,30
2017-04-10T10:58:16.434Z,30
2017-04-10T10:59:26.477Z,30
2017-04-10T11:00:36.439Z,35
2017-04-10T11:01:46.078Z,35
2017-04-10T11:02:56.345Z,35
2017-04-10T11:04:06.598Z,40
2017-04-10T11:05:16.819Z,40
2017-04-10T11:06:26.756Z,45
2017-04-10T11:07:36.105Z,45
2017-04-10T11:08:46.346Z,45
2017-04-10T11:09:55.664Z,45
2017-04-10T11:11:06.240Z,40
2017-04-10T11:12:15.881Z,30
2017-04-10T11:13:25.515Z,30
2017-04-10T11:14:35.164Z,30
2017-04-10T11:15:44.844Z,35
2017-04-10T11:16:55.030Z,35
2017-04-10T11:18:04.672Z,40
2017-04-10T11:19:14.939Z,35
2017-04-10T11:20:24.569Z,35
2017-04-10T11:21:34.528Z,35
2017-04-10T11:22:44.864Z,35
2017-04-10T11:23:54.525Z,40
2017-04-10T11:25:04.154Z,50
2017-04-10T11:26:14.797Z,60
2017-04-10T11:27:24.450Z,65
2017-04-10T11:28:34.993Z,70
2017-04-10T11:29:44.625Z,75
2017-04-10T11:30:54.583Z,80
2017-04-10T11:32:03.620Z,80
2017-04-10T11:33:13.561Z,80
2017-04-10T11:34:23.656Z,80
2017-04-10T11:35:33.899Z,80
2017-04-10T11:36:43.549Z,80
2017-04-10T11:37:52.888Z,80
2017-04-10T11:39:02.869Z,75
2017-04-10T11:40:12.675Z,60
2017-04-10T11:41:22.625Z,55
2017-04-10T11:42:32.564Z,55
2017-04-10T11:43:42.509Z,50
2017-04-10T11:44:52.754Z,55
2017-04-10T11:46:02.955Z,55
2017-04-10T11:47:12.927Z,60
2017-04-10T11:48:22.862Z,55
2017-04-10T11:49:32.833Z,45
2017-04-10T11:50:42.456Z,50
2017-04-10T11:51:52.552Z,55
2017-04-10T11:53:02.500Z,65
2017-04-10T11:54:12.472Z,70
2017-04-10T11:55:21.797Z,70
2017-04-10T11:56:31.743Z,75
2017-04-10T11:57:41.438Z,75
2017-04-10T11:58:51.056Z,70
2017-04-10T12:00:01.008Z,65
2017-04-10T12:01:10.670Z,60
2017-04-10T12:02:20.010Z,55
2017-04-10T12:03:30.512Z,55
2017-04-10T12:04:40.793Z,55
2017-04-10T12:05:50.166Z,55
2017-04-10T12:07:00.117Z,50
2017-04-10T12:08:10.089Z,50
2017-04-10T12:09:20.606Z,40
2017-04-10T12:10:30.858Z,40
2017-04-10T12:11:40.526Z,45
2017-04-10T12:12:50.481Z,45
2017-04-10T12:14:00.116Z,45
2017-04-10T12:15:09.985Z,40
2017-04-10T12:16:19.914Z,40
2017-04-10T12:17:29.849Z,35
2017-04-10T12:18:39.475Z,30
2017-04-10T12:19:49.100Z,30
2017-04-10T12:20:59.305Z,25
2017-04-10T12:22:09.253Z,30
2017-04-10T12:23:19.515Z,35
2017-04-10T12:24:29.474Z,35
2017-04-10T12:25:39.099Z,35
2017-04-10T12:26:49.683Z,35
2017-04-10T12:27:59.612Z,35
2017-04-10T12:29:09.558Z,35
2017-04-10T12:30:19.177Z,35
2017-04-10T12:31:28.495Z,40
2017-04-10T12:32:38.595Z,45
2017-04-10T12:33:48.203Z,40
2017-04-10T12:34:58.129Z,45
2017-04-10T12:36:07.744Z,45
2017-04-10T12:37:17.041Z,45
2017-04-10T12:38:27.217Z,45
2017-04-10T12:39:36.851Z,50
2017-04-10T12:40:47.112Z,50
2017-04-10T12:41:56.735Z,45
2017-04-10T12:43:06.355Z,45
2017-04-10T12:44:16.548Z,40
2017-04-10T12:45:26.826Z,40
2017-04-10T12:46:36.466Z,40
2017-04-10T12:47:46.394Z,40
2017-04-10T12:48:56.662Z,50
2017-04-10T12:50:06.749Z,55
2017-04-10T12:51:16.667Z,60
2017-04-10T12:52:26.912Z,60
2017-04-10T12:53:36.533Z,70
2017-04-10T12:54:46.459Z,75
2017-04-10T12:55:56.996Z,70
2017-04-10T12:57:06.655Z,70
2017-04-10T12:58:16.572Z,65
2017-04-10T12:59:26.179Z,60
2017-04-10T13:00:35.782Z,55
2017-04-10T13:01:45.550Z,45
2017-04-10T13:02:55.837Z,40
2017-04-10T13:04:05.146Z,35
2017-04-10T13:05:15.080Z,35
2017-04-10T13:06:24.758Z,40
2017-04-10T13:07:34.736Z,50
2017-04-10T13:08:44.040Z,55
2017-04-10T13:09:53.959Z,55
2017-04-10T13:11:04.183Z,55
2017-04-10T13:12:12.883Z,55
2017-04-10T13:13:22.772Z,55
2017-04-10T13:14:32.723Z,60
2017-04-10T13:15:43.021Z,60
2017-04-10T13:16:52.648Z,60
2017-04-10T13:18:02.595Z,60
2017-04-10T13:19:12.930Z,65
2017-04-10T13:20:21.947Z,65
2017-04-10T13:21:31.885Z,60
2017-04-10T13:22:41.538Z,60
2017-04-10T13:23:51.472Z,60
2017-04-10T13:25:02.023Z,50
2017-04-10T13:26:11.726Z,45
2017-04-10T13:27:21.341Z,45
2017-04-10T13:28:31.272Z,45
2017-04-10T13:29:40.891Z,45
2017-04-10T13:30:51.264Z,45
2017-04-10T13:32:00.586Z,45
2017-04-10T13:33:09.651Z,45
2017-04-10T13:34:19.580Z,45
2017-04-10T13:35:29.838Z,50
2017-04-10T13:36:40.471Z,50
2017-04-10T13:37:50.101Z,45
2017-04-10T13:39:00.018Z,45
2017-04-10T13:40:09.726Z,45
2017-04-10T13:41:19.337Z,40
2017-04-10T13:42:28.958Z,35
2017-04-10T13:43:38.584Z,35
2017-04-10T13:44:47.656Z,35
2017-04-10T13:45:57.580Z,35
2017-04-10T13:47:07.810Z,35
2017-04-10T13:48:17.822Z,35
2017-04-10T13:49:27.493Z,35
2017-04-10T13:50:37.419Z,35
2017-04-10T13:51:47.356Z,35
2017-04-10T13:52:56.969Z,35
2017-04-10T13:54:07.156Z,40
2017-04-10T13:55:17.401Z,40
2017-04-10T13:56:27.035Z,45
2017-04-10T13:57:36.984Z,45
2017-04-10T13:58:46.603Z,45
2017-04-10T13:59:56.420Z,50
2017-04-10T14:01:06.382Z,45
2017-04-10T14:02:16.103Z,45
2017-04-10T14:03:26.049Z,50
2017-04-10T14:04:35.668Z,50
2017-04-10T14:05:46.303Z,50
2017-04-10T14:06:56.534Z,50
2017-04-10T14:08:06.490Z,50
2017-04-10T14:09:16.809Z,50
2017-04-10T14:10:26.439Z,50
2017-04-10T14:11:37.212Z,40
2017-04-10T14:12:47.170Z,35
2017-04-10T14:13:57.425Z,30
2017-04-10T14:15:07.361Z,30
2017-04-10T14:16:17.633Z,30
2017-04-10T14:17:27.507Z,35
2017-04-10T14:18:37.445Z,40
2017-04-10T14:19:47.405Z,40
2017-04-10T14:20:57.346Z,50
2017-04-10T14:22:07.577Z,60
2017-04-10T14:23:17.295Z,55
2017-04-10T14:24:27.585Z,55
2017-04-10T14:25:37.512Z,55
2017-04-10T14:26:47.135Z,50
2017-04-10T14:27:56.764Z,45
2017-04-10T14:29:07.030Z,50
2017-04-10T14:30:16.964Z,50
2017-04-10T14:31:26.891Z,50
2017-04-10T14:32:36.837Z,50
2017-04-10T14:33:47.067Z,45
2017-04-10T14:34:56.950Z,40
2017-04-10T14:36:06.311Z,45
2017-04-10T14:37:16.615Z,45
2017-04-10T14:38:26.266Z,40
2017-04-10T14:39:36.252Z,40
2017-04-10T14:40:46.455Z,40
2017-04-10T14:41:56.377Z,40
2017-04-10T14:43:06.616Z,35
2017-04-10T14:44:16.876Z,30
2017-04-10T14:45:26.248Z,30
2017-04-10T14:46:36.607Z,25
2017-04-10T14:47:46.845Z,30
2017-04-10T14:48:57.102Z,30
2017-04-10T14:50:06.813Z,30
2017-04-10T14:51:16.754Z,25
2017-04-10T14:52:26.531Z,25
2017-04-10T14:53:36.164Z,25
2017-04-10T14:54:46.102Z,30
2017-04-10T14:55:56.333Z,25
2017-04-10T14:57:06.619Z,30
2017-04-10T14:58:17.191Z,30
2017-04-10T14:59:26.863Z,30
2017-04-10T15:00:36.786Z,30
2017-04-10T15:01:47.012Z,30
2017-04-10T15:02:57.253Z,30
2017-04-10T15:04:07.654Z,30
2017-04-10T15:05:17.577Z,30
2017-04-10T15:06:27.524Z,30
2017-04-10T15:07:37.154Z,30
2017-04-10T15:08:46.160Z,30
2017-04-10T15:09:55.623Z,30
2017-04-10T15:11:05.568Z,35
2017-04-10T15:12:15.521Z,35
2017-04-10T15:13:25.772Z,35
2017-04-10T15:14:35.760Z,40
2017-04-10T15:15:46.005Z,40
2017-04-10T15:16:55.628Z,35
2017-04-10T15:18:05.867Z,35
2017-04-10T15:19:15.803Z,35
2017-04-10T15:20:25.731Z,35
2017-04-10T15:21:35.801Z,30
2017-04-10T15:22:45.731Z,25
2017-04-10T15:23:55.654Z,25
2017-04-10T15:25:05.273Z,20
2017-04-10T15:26:15.210Z,25
2017-04-10T15:27:26.161Z,30
2017-04-10T15:28:36.767Z,30
2017-04-10T15:29:46.686Z,30
2017-04-10T15:30:56.624Z,25
2017-04-10T15:32:06.869Z,20
2017-04-10T15:33:17.263Z,20
2017-04-10T15:34:27.202Z,20
2017-04-10T15:35:37.125Z,20
2017-04-10T15:36:47.368Z,25
2017-04-10T15:37:57.607Z,25
2017-04-10T15:39:07.577Z,25
2017-04-10T15:40:17.198Z,25
2017-04-10T15:41:26.826Z,25
2017-04-10T15:42:36.444Z,25
2017-04-10T15:43:45.784Z,25
2017-04-10T15:44:55.973Z,25
2017-04-10T15:46:05.925Z,25
2017-04-10T15:47:16.165Z,25
2017-04-10T15:48:25.492Z,25
2017-04-10T15:49:35.746Z,25
2017-04-10T15:50:46.359Z,25
2017-04-10T15:51:56.977Z,25
2017-04-10T15:53:07.215Z,25
2017-04-10T15:54:17.143Z,25
2017-04-10T15:55:27.402Z,25
2017-04-10T15:56:37.881Z,25
2017-04-10T15:57:47.811Z,30
2017-04-10T15:58:58.048Z,30
2017-04-10T16:00:08.272Z,30
2017-04-10T16:01:18.209Z,25
2017-04-10T16:02:28.392Z,25
2017-04-10T16:03:38.299Z,30
2017-04-10T16:04:48.228Z,25
2017-04-10T16:05:58.470Z,25
2017-04-10T16:07:08.396Z,25
2017-04-10T16:08:18.761Z,25
2017-04-10T16:09:28.379Z,25
2017-04-10T16:10:38.611Z,25
2017-04-10T16:11:48.543Z,25
2017-04-10T16:12:58.486Z,20
2017-04-10T16:14:08.877Z,25
2017-04-10T16:15:18.814Z,25
2017-04-10T16:16:28.747Z,25
2017-04-10T16:17:38.984Z,20
2017-04-10T16:18:47.977Z,20
2017-04-10T16:19:58.140Z,20
2017-04-10T16:21:08.061Z,20
2017-04-10T16:22:17.989Z,20
2017-04-10T16:23:27.900Z,20
2017-04-10T16:24:37.823Z,15
2017-04-10T16:25:48.343Z,15
2017-04-10T16:26:58.265Z,15
2017-04-10T16:28:08.511Z,15
2017-04-10T16:29:18.457Z,15
2017-04-10T16:30:28.071Z,20
2017-04-10T16:31:37.836Z,20
2017-04-10T16:32:48.078Z,20
2017-04-10T16:33:57.995Z,20
2017-04-10T16:35:07.917Z,15
2017-04-10T16:36:18.144Z,15
2017-04-10T16:37:27.606Z,15
2017-04-10T16:38:37.524Z,15
2017-04-10T16:39:46.845Z,15
2017-04-10T16:40:56.763Z,15
2017-04-10T16:42:06.390Z,15
2017-04-10T16:43:17.155Z,15
2017-04-10T16:44:27.397Z,15
2017-04-10T16:45:37.337Z,15
2017-04-10T16:46:47.254Z,15
2017-04-10T16:47:57.183Z,15
2017-04-10T16:49:07.291Z,15
2017-04-10T16:50:17.214Z,20
2017-04-10T16:51:27.457Z,20
2017-04-10T16:52:37.070Z,20
2017-04-10T16:53:47.024Z,20